Time,TemperatureF,DewpointF,PressureIn,WindDirection,WindDirectionDegrees,WindSpeedMPH,WindSpeedGustMPH,Humidity,HourlyPrecipIn,Conditions,Clouds,dailyrainin,SoftwareType,DateUTC
2013-09-10 00:10:00,68.5,66.4,30.18,ENE,68,0.0,0.0,93,0.00,,,0.00,meteohub,2013-09-09 22:10:00,
2013-09-10 00:26:00,68.4,66.2,30.18,ENE,68,0.0,0.0,93,0.00,,,0.00,meteohub,2013-09-09 22:26:00,
2013-09-10 00:41:00,68.2,66.4,30.18,ENE,68,0.0,0.0,94,0.00,,,0.00,meteohub,2013-09-09 22:41:00,
2013-09-10 00:56:00,68.2,66.4,30.17,ENE,68,0.0,0.0,94,0.00,,,0.00,meteohub,2013-09-09 22:56:00,
2013-09-10 01:12:00,67.8,66.0,30.17,ENE,68,0.0,0.0,94,0.00,,,0.00,meteohub,2013-09-09 23:12:00,
2013-09-10 01:27:00,67.3,65.5,30.17,ENE,68,0.0,2.0,94,0.00,,,0.00,meteohub,2013-09-09 23:27:00,
2013-09-10 01:43:00,67.3,65.5,30.18,ENE,68,0.0,0.0,94,0.00,,,0.00,meteohub,2013-09-09 23:43:00,
2013-09-10 01:58:00,66.9,65.1,30.18,ENE,68,0.0,1.0,94,0.00,,,0.00,meteohub,2013-09-09 23:58:00,
2013-09-10 02:13:00,66.7,64.9,30.17,ENE,68,0.0,2.0,94,0.00,,,0.00,meteohub,2013-09-10 00:13:00,
2013-09-10 02:29:00,66.4,64.6,30.17,ENE,68,0.0,1.0,94,0.01,,,0.01,meteohub,2013-09-10 00:29:00,
2013-09-10 02:44:00,66.0,64.6,30.17,ENE,68,0.0,1.0,95,0.01,,,0.01,meteohub,2013-09-10 00:44:00,
2013-09-10 03:00:00,65.8,64.4,30.17,ENE,68,1.0,2.0,95,0.01,,,0.01,meteohub,2013-09-10 01:00:00,
2013-09-10 03:15:00,65.8,64.4,30.17,ENE,68,1.0,2.0,95,0.00,,,0.01,meteohub,2013-09-10 01:15:00,
2013-09-10 03:31:00,66.0,64.6,30.17,ENE,68,0.0,2.0,95,0.00,,,0.01,meteohub,2013-09-10 01:31:00,
2013-09-10 03:46:00,65.8,64.4,30.16,ENE,68,0.0,0.0,95,0.00,,,0.01,meteohub,2013-09-10 01:46:00,
2013-09-10 04:01:00,65.7,64.2,30.16,ENE,68,0.0,1.0,95,0.00,,,0.01,meteohub,2013-09-10 02:01:00,
2013-09-10 04:17:00,65.1,63.7,30.15,ENE,68,0.0,3.0,95,0.00,,,0.01,meteohub,2013-09-10 02:17:00,
2013-09-10 04:32:00,65.3,63.9,30.15,ENE,68,0.0,1.0,95,0.00,,,0.01,meteohub,2013-09-10 02:32:00,
2013-09-10 04:47:00,65.5,64.0,30.15,ENE,68,0.0,0.0,95,0.00,,,0.01,meteohub,2013-09-10 02:47:00,
2013-09-10 05:03:00,65.7,64.4,30.14,ENE,68,0.0,1.0,96,0.00,,,0.01,meteohub,2013-09-10 03:03:00,
2013-09-10 05:18:00,65.5,64.0,30.13,ENE,68,0.0,1.0,95,0.00,,,0.01,meteohub,2013-09-10 03:18:00,
2013-09-10 05:34:00,65.5,64.0,30.12,ENE,68,1.0,2.0,95,0.00,,,0.01,meteohub,2013-09-10 03:34:00,
2013-09-10 05:49:00,65.5,64.0,30.11,ENE,68,1.0,2.0,95,0.00,,,0.01,meteohub,2013-09-10 03:49:00,
2013-09-10 06:05:00,65.5,64.0,30.11,ENE,68,0.0,1.0,95,0.00,,,0.01,meteohub,2013-09-10 04:05:00,
2013-09-10 06:21:00,65.1,63.7,30.10,ENE,68,0.0,1.0,95,0.00,,,0.01,meteohub,2013-09-10 04:21:00,
2013-09-10 06:36:00,65.1,63.7,30.11,ENE,68,0.0,0.0,95,0.00,,,0.01,meteohub,2013-09-10 04:36:00,
2013-09-10 06:52:00,64.9,63.5,30.10,ENE,68,0.0,1.0,95,0.00,,,0.01,meteohub,2013-09-10 04:52:00,
2013-09-10 07:07:00,64.9,63.5,30.11,ENE,68,0.0,1.0,95,0.00,,,0.01,meteohub,2013-09-10 05:07:00,
2013-09-10 07:22:00,64.9,63.5,30.11,ENE,68,0.0,0.0,95,0.00,,,0.01,meteohub,2013-09-10 05:22:00,
2013-09-10 07:38:00,65.1,63.7,30.12,ENE,68,0.0,1.0,95,0.00,,,0.01,meteohub,2013-09-10 05:38:00,
2013-09-10 07:54:00,65.1,63.5,30.12,ENE,68,0.0,2.0,94,0.00,,,0.01,meteohub,2013-09-10 05:54:00,
2013-09-10 08:10:00,65.5,63.7,30.11,ENE,68,0.0,0.0,94,0.00,,,0.01,meteohub,2013-09-10 06:10:00,
2013-09-10 08:25:00,65.5,63.7,30.10,ENE,68,0.0,1.0,94,0.00,,,0.01,meteohub,2013-09-10 06:25:00,
2013-09-10 08:41:00,65.1,63.3,30.10,ENE,68,0.0,0.0,94,0.00,,,0.01,meteohub,2013-09-10 06:41:00,
2013-09-10 08:56:00,65.3,63.5,30.11,ENE,68,0.0,0.0,94,0.00,,,0.01,meteohub,2013-09-10 06:56:00,
2013-09-10 09:12:00,65.7,63.5,30.11,ENE,68,0.0,1.0,93,0.00,,,0.01,meteohub,2013-09-10 07:12:00,
2013-09-10 09:27:00,66.2,63.9,30.11,ENE,68,0.0,0.0,92,0.00,,,0.01,meteohub,2013-09-10 07:27:00,
2013-09-10 09:44:00,66.6,63.9,30.12,ENE,68,0.0,1.0,91,0.00,,,0.01,meteohub,2013-09-10 07:44:00,
2013-09-10 09:59:00,68.5,64.9,30.12,ENE,68,1.0,3.0,88,0.00,,,0.01,meteohub,2013-09-10 07:59:00,
2013-09-10 10:15:00,69.3,65.3,30.12,ENE,68,1.0,2.0,87,0.00,,,0.01,meteohub,2013-09-10 08:15:00,
2013-09-10 10:31:00,69.8,64.9,30.13,ENE,68,1.0,3.0,84,0.00,,,0.01,meteohub,2013-09-10 08:31:00,
2013-09-10 10:46:00,70.2,65.5,30.13,ENE,68,1.0,2.0,85,0.00,,,0.01,meteohub,2013-09-10 08:46:00,
2013-09-10 11:01:00,70.9,65.5,30.13,ENE,68,0.0,1.0,83,0.00,,,0.01,meteohub,2013-09-10 09:01:00,
2013-09-10 11:17:00,71.4,65.7,30.13,ENE,68,0.0,0.0,82,0.00,,,0.01,meteohub,2013-09-10 09:17:00,
2013-09-10 11:32:00,73.9,64.9,30.13,ENE,68,1.0,3.0,73,0.00,,,0.01,meteohub,2013-09-10 09:32:00,
2013-09-10 11:47:00,74.8,65.1,30.13,ENE,68,1.0,2.0,72,0.00,,,0.01,meteohub,2013-09-10 09:47:00,
2013-09-10 12:02:00,75.7,65.7,30.13,ENE,68,1.0,3.0,71,0.00,,,0.01,meteohub,2013-09-10 10:02:00,
2013-09-10 12:18:00,76.5,63.9,30.12,East,90,0.0,4.0,65,0.00,,,0.01,meteohub,2013-09-10 10:18:00,
2013-09-10 12:33:00,77.0,64.2,30.12,NW,315,3.0,5.0,64,0.00,,,0.01,meteohub,2013-09-10 10:33:00,
2013-09-10 12:48:00,76.5,63.0,30.12,ENE,68,0.0,6.0,63,0.00,,,0.01,meteohub,2013-09-10 10:48:00,
2013-09-10 13:04:00,76.8,62.6,30.11,East,90,1.0,3.0,61,0.00,,,0.01,meteohub,2013-09-10 11:04:00,
2013-09-10 13:19:00,77.4,60.6,30.11,West,270,0.0,7.0,56,0.00,,,0.01,meteohub,2013-09-10 11:19:00,
2013-09-10 13:34:00,78.4,60.6,30.10,West,270,1.0,6.0,54,0.00,,,0.01,meteohub,2013-09-10 11:34:00,
2013-09-10 13:50:00,78.1,63.0,30.10,SW,225,5.0,9.0,59,0.00,,,0.01,meteohub,2013-09-10 11:50:00,
2013-09-10 14:05:00,78.6,64.2,30.11,SSW,203,6.0,11.0,61,0.01,,,0.02,meteohub,2013-09-10 12:05:00,
2013-09-10 14:21:00,78.4,64.6,30.10,SW,225,5.0,13.0,62,0.01,,,0.02,meteohub,2013-09-10 12:21:00,
2013-09-10 14:37:00,78.6,64.4,30.10,SSW,203,8.0,13.0,61,0.01,,,0.02,meteohub,2013-09-10 12:37:00,
2013-09-10 14:52:00,78.1,63.7,30.09,SW,225,6.0,10.0,61,0.01,,,0.02,meteohub,2013-09-10 12:52:00,
2013-09-10 15:07:00,78.1,64.8,30.09,SSW,203,6.0,9.0,63,0.00,,,0.02,meteohub,2013-09-10 13:07:00,
2013-09-10 15:23:00,78.1,65.7,30.09,SW,225,6.0,15.0,65,0.00,,,0.02,meteohub,2013-09-10 13:23:00,
2013-09-10 15:38:00,78.1,65.8,30.08,SSW,203,8.0,13.0,66,0.00,,,0.02,meteohub,2013-09-10 13:38:00,
2013-09-10 15:53:00,78.3,66.0,30.08,SSW,203,6.0,13.0,66,0.00,,,0.02,meteohub,2013-09-10 13:53:00,
2013-09-10 16:09:00,78.4,64.8,30.07,WSW,248,8.0,11.0,63,0.00,,,0.02,meteohub,2013-09-10 14:09:00,
2013-09-10 16:24:00,77.7,64.4,30.07,SSW,203,6.0,12.0,63,0.00,,,0.02,meteohub,2013-09-10 14:24:00,
2013-09-10 16:40:00,78.6,63.9,30.07,SW,225,6.0,12.0,60,0.00,,,0.02,meteohub,2013-09-10 14:40:00,
2013-09-10 16:56:00,78.6,63.0,30.07,South,180,6.0,12.0,58,0.00,,,0.02,meteohub,2013-09-10 14:56:00,
2013-09-10 17:11:00,77.7,62.8,30.07,SSW,203,6.0,13.0,60,0.00,,,0.02,meteohub,2013-09-10 15:11:00,
2013-09-10 17:27:00,77.9,61.7,30.06,South,180,6.0,11.0,57,0.00,,,0.02,meteohub,2013-09-10 15:27:00,
2013-09-10 17:42:00,78.1,62.1,30.06,SSW,203,5.0,11.0,58,0.00,,,0.02,meteohub,2013-09-10 15:42:00,
2013-09-10 17:57:00,78.4,60.1,30.06,SW,225,7.0,14.0,53,0.00,,,0.02,meteohub,2013-09-10 15:57:00,
2013-09-10 18:13:00,77.9,61.5,30.06,SSW,203,8.0,14.0,57,0.00,,,0.02,meteohub,2013-09-10 16:13:00,
2013-09-10 18:28:00,77.2,61.3,30.06,SSW,203,6.0,13.0,58,0.00,,,0.02,meteohub,2013-09-10 16:28:00,
2013-09-10 18:43:00,77.2,60.3,30.06,SW,225,8.0,13.0,56,0.00,,,0.02,meteohub,2013-09-10 16:43:00,
2013-09-10 18:59:00,77.2,58.6,30.06,WSW,248,4.0,11.0,53,0.00,,,0.02,meteohub,2013-09-10 16:59:00,
2013-09-10 19:14:00,76.8,64.8,30.06,NNW,338,3.0,11.0,66,0.00,,,0.02,meteohub,2013-09-10 17:14:00,
2013-09-10 19:29:00,75.2,65.1,30.06,NE,45,4.0,10.0,70,0.00,,,0.02,meteohub,2013-09-10 17:29:00,
2013-09-10 19:44:00,74.7,65.7,30.06,NNE,23,3.0,8.0,73,0.00,,,0.02,meteohub,2013-09-10 17:44:00,
2013-09-10 20:00:00,73.8,66.6,30.07,NNE,23,2.0,5.0,78,0.00,,,0.02,meteohub,2013-09-10 18:00:00,
2013-09-10 20:16:00,73.0,66.6,30.07,NNE,23,2.0,4.0,80,0.00,,,0.02,meteohub,2013-09-10 18:16:00,
2013-09-10 20:31:00,72.1,66.4,30.07,NNE,23,2.0,4.0,82,0.00,,,0.02,meteohub,2013-09-10 18:31:00,
2013-09-10 20:46:00,71.8,66.2,30.06,NNE,23,1.0,3.0,82,0.00,,,0.02,meteohub,2013-09-10 18:46:00,
2013-09-10 21:01:00,71.2,65.8,30.07,NE,45,2.0,3.0,83,0.00,,,0.02,meteohub,2013-09-10 19:01:00,
2013-09-10 21:17:00,70.9,65.8,30.08,NNE,23,3.0,5.0,84,0.00,,,0.02,meteohub,2013-09-10 19:17:00,
2013-09-10 21:32:00,70.3,65.7,30.08,NE,45,1.0,3.0,85,0.00,,,0.02,meteohub,2013-09-10 19:32:00,
2013-09-10 21:47:00,70.2,65.8,30.08,NE,45,0.0,0.0,86,0.00,,,0.02,meteohub,2013-09-10 19:47:00,
2013-09-10 22:03:00,70.2,65.8,30.09,NE,45,0.0,1.0,86,0.00,,,0.02,meteohub,2013-09-10 20:03:00,
2013-09-10 22:18:00,70.0,65.1,30.09,ESE,113,0.0,2.0,84,0.00,,,0.02,meteohub,2013-09-10 20:18:00,
2013-09-10 22:33:00,70.0,64.9,30.09,ESE,113,1.0,2.0,84,0.00,,,0.02,meteohub,2013-09-10 20:33:00,
2013-09-10 22:49:00,70.2,64.8,30.09,ESE,113,0.0,1.0,83,0.00,,,0.02,meteohub,2013-09-10 20:49:00,
2013-09-10 23:04:00,70.3,64.9,30.09,ESE,113,1.0,3.0,83,0.00,,,0.02,meteohub,2013-09-10 21:04:00,
2013-09-10 23:20:00,70.2,64.9,30.09,ESE,113,0.0,0.0,83,0.00,,,0.02,meteohub,2013-09-10 21:20:00,
2013-09-10 23:35:00,69.4,64.6,30.09,ESE,113,0.0,0.0,84,0.00,,,0.02,meteohub,2013-09-10 21:35:00,
2013-09-10 23:50:00,68.2,64.2,30.09,ESE,113,0.0,0.0,87,0.00,,,0.02,meteohub,2013-09-10 21:50:00,